createdAt,value
2018-11-26T00:00:52.762Z,86.08
2018-11-26T00:03:22.460Z,86.30
2018-11-26T00:05:52.108Z,86.14
2018-11-26T00:08:21.717Z,86.46
2018-11-26T00:11:04.561Z,86.77
2018-11-26T00:13:34.130Z,87.03
2018-11-26T00:16:04.110Z,87.04
2018-11-26T00:18:33.728Z,86.96
2018-11-26T00:21:03.316Z,87.02
2018-11-26T00:23:33.012Z,87.33
2018-11-26T00:26:02.636Z,87.08
2018-11-26T00:28:32.246Z,87.11
2018-11-26T00:31:01.858Z,86.96
2018-11-26T00:33:31.549Z,87.08
2018-11-26T00:36:01.164Z,86.92
2018-11-26T00:38:30.810Z,87.03
2018-11-26T00:41:00.401Z,87.04
2018-11-26T00:43:30.058Z,87.07
2018-11-26T00:45:59.651Z,86.96
2018-11-26T00:48:29.290Z,87.04
2018-11-26T00:50:59.467Z,87.14
2018-11-26T00:53:29.067Z,87.26
2018-11-26T00:55:58.729Z,87.43
2018-11-26T00:58:28.371Z,87.28
2018-11-26T01:00:57.976Z,87.42
2018-11-26T01:03:27.636Z,87.25
2018-11-26T01:05:57.226Z,87.22
2018-11-26T01:08:26.777Z,87.32
2018-11-26T01:10:56.442Z,86.89
2018-11-26T01:13:26.029Z,87.07
2018-11-26T01:15:55.676Z,87.22
2018-11-26T01:18:25.376Z,87.37
2018-11-26T01:20:54.940Z,87.22
2018-11-26T01:23:24.483Z,87.52
2018-11-26T01:25:54.118Z,87.50
2018-11-26T01:28:23.691Z,87.48
2018-11-26T01:30:53.303Z,87.47
2018-11-26T01:33:22.962Z,87.62
2018-11-26T01:35:52.618Z,87.83
2018-11-26T01:38:22.210Z,87.79
2018-11-26T01:40:52.698Z,87.98
2018-11-26T01:43:22.718Z,87.92
2018-11-26T01:45:53.067Z,88.00
2018-11-26T01:48:22.825Z,87.96
2018-11-26T01:50:52.386Z,87.52
2018-11-26T01:53:21.977Z,87.59
2018-11-26T01:55:51.630Z,87.31
2018-11-26T01:58:21.226Z,87.14
2018-11-26T02:00:50.850Z,87.27
2018-11-26T02:03:20.470Z,87.17
2018-11-26T02:05:53.030Z,87.44
2018-11-26T02:08:22.728Z,87.15
2018-11-26T02:10:52.336Z,87.19
2018-11-26T02:13:21.971Z,86.90
2018-11-26T02:15:51.576Z,87.20
2018-11-26T02:18:21.240Z,87.04
2018-11-26T02:20:50.857Z,87.24
2018-11-26T02:23:20.382Z,86.71
2018-11-26T02:25:50.058Z,86.74
2018-11-26T02:28:19.775Z,86.87
2018-11-26T02:30:49.340Z,86.78
2018-11-26T02:33:19.088Z,86.75
2018-11-26T02:35:48.671Z,86.96
2018-11-26T02:38:18.403Z,86.78
2018-11-26T02:40:47.980Z,86.83
2018-11-26T02:43:17.550Z,86.69
2018-11-26T02:45:47.128Z,86.63
2018-11-26T02:48:19.727Z,86.80
2018-11-26T02:50:49.377Z,86.76
2018-11-26T02:53:18.960Z,86.82
2018-11-26T02:55:48.614Z,86.92
2018-11-26T02:58:18.315Z,86.82
2018-11-26T03:00:47.874Z,86.86
2018-11-26T03:03:17.652Z,86.88
2018-11-26T03:05:47.297Z,86.81
2018-11-26T03:08:16.911Z,86.76
2018-11-26T03:10:46.556Z,86.76
2018-11-26T03:13:16.189Z,86.57
2018-11-26T03:15:45.780Z,86.69
2018-11-26T03:18:15.565Z,86.44
2018-11-26T03:20:45.123Z,86.58
2018-11-26T03:23:14.706Z,86.49
2018-11-26T03:25:44.370Z,86.42
2018-11-26T03:28:13.996Z,86.56
2018-11-26T03:30:43.581Z,86.47
2018-11-26T03:33:13.314Z,86.38
2018-11-26T03:35:42.942Z,86.12
2018-11-26T03:38:15.709Z,86.18
2018-11-26T03:40:45.280Z,85.98
2018-11-26T03:43:14.877Z,86.05
2018-11-26T03:45:44.549Z,85.97
2018-11-26T03:48:14.122Z,85.87
2018-11-26T03:50:43.820Z,85.82
2018-11-26T03:53:13.426Z,85.85
2018-11-26T03:55:43.002Z,85.65
2018-11-26T03:58:12.640Z,85.78
2018-11-26T04:00:42.254Z,85.66
2018-11-26T04:03:11.957Z,85.50
2018-11-26T04:05:41.557Z,85.43
2018-11-26T04:08:11.118Z,85.70
2018-11-26T04:10:40.877Z,85.86
2018-11-26T04:13:10.468Z,85.66
2018-11-26T04:15:40.048Z,85.51
2018-11-26T04:18:09.686Z,85.39
2018-11-26T04:20:39.296Z,85.68
2018-11-26T04:23:08.930Z,86.15
2018-11-26T04:25:38.791Z,86.30
2018-11-26T04:28:08.528Z,86.79
2018-11-26T04:30:38.188Z,86.99
2018-11-26T04:33:07.758Z,87.40
2018-11-26T04:35:37.452Z,87.54
2018-11-26T04:38:07.203Z,87.62
2018-11-26T04:40:36.816Z,87.68
2018-11-26T04:43:06.775Z,87.70
2018-11-26T04:45:36.401Z,87.71
2018-11-26T04:48:06.472Z,87.70
2018-11-26T04:50:36.051Z,87.68
2018-11-26T04:53:05.811Z,87.41
2018-11-26T04:55:35.420Z,87.53
2018-11-26T04:58:05.242Z,87.65
2018-11-26T05:00:37.946Z,87.68
2018-11-26T05:03:07.643Z,87.72
2018-11-26T05:05:37.320Z,87.76
2018-11-26T05:08:07.029Z,87.75
2018-11-26T05:10:36.743Z,87.69
2018-11-26T05:13:06.857Z,87.58
2018-11-26T05:15:39.337Z,87.46
2018-11-26T05:18:09.134Z,87.45
2018-11-26T05:20:38.746Z,87.48
2018-11-26T05:23:08.486Z,87.42
2018-11-26T05:25:38.573Z,87.58
2018-11-26T05:28:08.601Z,87.36
2018-11-26T05:30:38.259Z,87.14
2018-11-26T05:33:08.591Z,87.18
2018-11-26T05:35:38.174Z,87.26
2018-11-26T05:38:07.858Z,87.03
2018-11-26T05:40:38.299Z,87.04
2018-11-26T05:43:07.888Z,86.86
2018-11-26T05:45:37.574Z,86.79
2018-11-26T05:48:07.384Z,86.38
2018-11-26T05:50:37.130Z,86.46
2018-11-26T05:53:07.811Z,86.51
2018-11-26T05:55:37.589Z,86.47
2018-11-26T05:58:08.441Z,86.45
2018-11-26T06:00:38.278Z,86.73
2018-11-26T06:03:09.263Z,87.01
2018-11-26T06:05:38.888Z,86.93
2018-11-26T06:08:08.623Z,86.89
2018-11-26T06:10:38.268Z,86.83
2018-11-26T06:13:09.484Z,86.92
2018-11-26T06:15:39.402Z,86.92
2018-11-26T06:18:09.127Z,86.93
2018-11-26T06:20:38.907Z,86.94
2018-11-26T06:23:08.687Z,87.15
2018-11-26T06:25:38.328Z,87.04
2018-11-26T06:28:07.990Z,87.37
2018-11-26T06:30:37.786Z,87.46
2018-11-26T06:33:07.746Z,87.42
2018-11-26T06:35:37.430Z,87.63
2018-11-26T06:38:08.303Z,87.60
2018-11-26T06:40:38.007Z,87.72
2018-11-26T06:43:07.610Z,87.45
2018-11-26T06:45:37.291Z,87.65
2018-11-26T06:48:07.746Z,87.39
2018-11-26T06:50:37.462Z,86.85
2018-11-26T06:53:08.219Z,86.94
2018-11-26T06:55:37.994Z,86.81
2018-11-26T06:58:07.817Z,86.82
2018-11-26T07:00:37.588Z,86.41
2018-11-26T07:03:07.337Z,86.49
2018-11-26T07:05:37.444Z,86.33
2018-11-26T07:08:07.283Z,85.98
2018-11-26T07:10:36.946Z,86.23
2018-11-26T07:13:07.157Z,86.37
2018-11-26T07:15:36.842Z,86.11
2018-11-26T07:18:07.828Z,86.20
2018-11-26T07:20:37.642Z,86.36
2018-11-26T07:23:07.491Z,86.22
2018-11-26T07:25:37.117Z,86.14
2018-11-26T07:28:09.071Z,86.29
2018-11-26T07:30:38.824Z,86.56
2018-11-26T07:33:09.182Z,86.23
2018-11-26T07:35:39.069Z,86.34
2018-11-26T07:38:09.033Z,85.77
2018-11-26T07:40:38.669Z,85.27
2018-11-26T07:43:13.331Z,85.29
2018-11-26T07:45:42.962Z,85.08
2018-11-26T07:48:13.648Z,84.94
2018-11-26T07:50:43.409Z,84.72
2018-11-26T07:53:13.465Z,84.29
2018-11-26T07:55:43.383Z,83.79
2018-11-26T07:58:13.203Z,84.00
2018-11-26T08:00:42.957Z,84.37
2018-11-26T08:03:12.717Z,84.10
2018-11-26T08:05:42.420Z,84.23
2018-11-26T08:08:12.315Z,84.38
2018-11-26T08:10:42.137Z,84.04
2018-11-26T08:13:13.897Z,83.87
2018-11-26T08:15:43.819Z,83.88
2018-11-26T08:18:13.472Z,83.53
2018-11-26T08:20:43.326Z,83.39
2018-11-26T08:23:13.657Z,83.06
2018-11-26T08:25:43.467Z,83.44
2018-11-26T08:28:13.248Z,83.34
2018-11-26T08:30:43.393Z,83.31
2018-11-26T08:33:13.153Z,83.13
2018-11-26T08:35:42.921Z,83.23
2018-11-26T08:38:16.700Z,83.31
2018-11-26T08:40:49.318Z,83.31
2018-11-26T08:43:23.089Z,83.21
2018-11-26T08:45:56.605Z,83.25
2018-11-26T08:48:30.460Z,82.94
2018-11-26T08:51:02.010Z,82.76
2018-11-26T08:53:33.095Z,82.81
2018-11-26T08:56:02.809Z,82.75
2018-11-26T08:58:32.434Z,82.96
2018-11-26T09:01:06.326Z,83.03
2018-11-26T09:03:36.046Z,83.42
2018-11-26T09:06:06.420Z,83.31
2018-11-26T09:08:37.762Z,83.60
2018-11-26T09:11:09.649Z,83.61
2018-11-26T09:13:39.267Z,83.39
2018-11-26T09:16:08.945Z,83.00
2018-11-26T09:18:38.652Z,82.31
2018-11-26T09:21:08.293Z,81.82
2018-11-26T09:23:38.201Z,81.51
2018-11-26T09:26:07.880Z,80.35
2018-11-26T09:28:37.540Z,80.05
2018-11-26T09:31:07.495Z,79.62
2018-11-26T09:33:37.222Z,78.95
2018-11-26T09:36:06.938Z,78.68
2018-11-26T09:38:36.638Z,78.20
2018-11-26T09:41:06.530Z,78.18
2018-11-26T09:43:36.669Z,78.37
2018-11-26T09:46:07.103Z,78.72
2018-11-26T09:48:36.915Z,78.93
2018-11-26T09:51:13.902Z,78.50
2018-11-26T09:53:36.628Z,78.79
2018-11-26T09:56:06.494Z,78.60
2018-11-26T09:58:36.156Z,78.86
2018-11-26T10:01:06.321Z,78.64
2018-11-26T10:03:35.926Z,79.01
2018-11-26T10:06:06.194Z,79.36
2018-11-26T10:08:35.846Z,79.67
2018-11-26T10:11:05.507Z,79.76
2018-11-26T10:13:35.206Z,79.52
2018-11-26T10:16:04.820Z,80.26
2018-11-26T10:18:34.409Z,80.63
2018-11-26T10:21:04.064Z,80.58
2018-11-26T10:23:33.681Z,80.82
2018-11-26T10:26:03.356Z,80.90
2018-11-26T10:28:33.768Z,81.03
2018-11-26T10:31:03.377Z,81.57
2018-11-26T10:33:32.991Z,81.52
2018-11-26T10:36:02.568Z,81.77
2018-11-26T10:38:32.194Z,81.60
2018-11-26T10:41:01.797Z,81.58
2018-11-26T10:43:31.363Z,81.06
2018-11-26T10:46:01.088Z,80.98
2018-11-26T10:48:30.679Z,80.82
2018-11-26T10:51:00.325Z,80.21
2018-11-26T10:53:29.938Z,80.51
2018-11-26T10:55:59.637Z,79.83
2018-11-26T10:58:29.231Z,79.64
2018-11-26T11:01:02.358Z,79.42
2018-11-26T11:03:31.958Z,78.29
2018-11-26T11:06:01.758Z,77.59
2018-11-26T11:08:31.496Z,76.28
2018-11-26T11:11:00.875Z,75.78
2018-11-26T11:13:30.561Z,74.77
2018-11-26T11:16:03.176Z,73.35
2018-11-26T11:18:33.195Z,72.53
2018-11-26T11:21:02.737Z,73.29
2018-11-26T11:23:32.390Z,74.32
2018-11-26T11:26:02.384Z,75.79
2018-11-26T11:28:32.250Z,76.59
2018-11-26T11:31:01.972Z,77.44
2018-11-26T11:33:31.587Z,77.69
2018-11-26T11:36:01.140Z,78.27
2018-11-26T11:38:30.808Z,78.13
2018-11-26T11:41:00.435Z,78.18
2018-11-26T11:43:30.118Z,78.42
2018-11-26T11:45:59.841Z,78.88
2018-11-26T11:48:29.446Z,78.89
2018-11-26T11:50:59.017Z,78.27
2018-11-26T11:53:28.948Z,78.21
2018-11-26T11:55:58.584Z,78.44
2018-11-26T11:58:28.188Z,78.04
2018-11-26T12:00:57.869Z,78.58
2018-11-26T12:03:27.493Z,78.45
2018-11-26T12:05:57.198Z,77.99
2018-11-26T12:08:27.077Z,78.90
2018-11-26T12:10:56.825Z,78.51
2018-11-26T12:13:26.370Z,77.76
2018-11-26T12:15:56.148Z,77.80
2018-11-26T12:18:25.748Z,77.68
2018-11-26T12:20:55.455Z,77.91
2018-11-26T12:23:25.153Z,78.67
2018-11-26T12:25:54.925Z,78.46
2018-11-26T12:28:24.572Z,78.08
2018-11-26T12:30:54.288Z,78.44
2018-11-26T12:33:23.997Z,78.50
2018-11-26T12:35:53.748Z,78.53
2018-11-26T12:38:23.479Z,78.86
2018-11-26T12:40:53.145Z,78.68
2018-11-26T12:43:23.108Z,78.46
2018-11-26T12:45:52.789Z,78.29
2018-11-26T12:48:22.413Z,78.20
2018-11-26T12:50:52.263Z,78.06
2018-11-26T12:53:21.853Z,78.03
2018-11-26T12:55:51.772Z,78.54
2018-11-26T12:58:21.387Z,78.41
2018-11-26T13:00:51.348Z,77.79
2018-11-26T13:03:21.103Z,77.60
2018-11-26T13:05:51.022Z,77.20
2018-11-26T13:08:20.647Z,77.41
2018-11-26T13:10:50.380Z,77.81
2018-11-26T13:13:20.091Z,77.82
2018-11-26T13:15:49.856Z,77.50
2018-11-26T13:18:19.515Z,77.50
2018-11-26T13:20:49.162Z,77.32
2018-11-26T13:23:18.882Z,77.14
2018-11-26T13:25:48.579Z,77.25
2018-11-26T13:28:18.315Z,77.21
2018-11-26T13:30:50.956Z,77.30
2018-11-26T13:33:21.097Z,77.79
2018-11-26T13:35:51.121Z,77.34
2018-11-26T13:38:20.753Z,77.78
2018-11-26T13:40:50.416Z,78.00
2018-11-26T13:43:22.898Z,78.15
2018-11-26T13:45:52.488Z,78.79
2018-11-26T13:48:22.165Z,79.10
2018-11-26T13:50:57.240Z,79.39
2018-11-26T13:53:27.145Z,79.14
2018-11-26T13:55:57.066Z,79.24
2018-11-26T13:58:26.827Z,78.91
2018-11-26T14:00:56.894Z,78.84
2018-11-26T14:03:26.751Z,78.56
2018-11-26T14:05:56.616Z,79.00
2018-11-26T14:08:26.242Z,78.93
2018-11-26T14:10:56.117Z,78.69
2018-11-26T14:13:25.943Z,79.25
2018-11-26T14:15:55.709Z,79.44
2018-11-26T14:18:25.368Z,79.47
2018-11-26T14:20:55.110Z,79.74
2018-11-26T14:23:24.761Z,79.62
2018-11-26T14:25:54.527Z,80.02
2018-11-26T14:28:24.340Z,80.07
2018-11-26T14:30:54.077Z,79.94
2018-11-26T14:33:23.766Z,80.04
2018-11-26T14:35:53.425Z,80.44
2018-11-26T14:38:23.017Z,80.51
2018-11-26T14:40:54.832Z,80.67
2018-11-26T14:43:24.791Z,80.47
2018-11-26T14:45:54.690Z,80.44
2018-11-26T14:48:24.311Z,80.53
2018-11-26T14:50:54.131Z,80.36
2018-11-26T14:53:23.698Z,80.23
2018-11-26T14:55:53.430Z,80.59
2018-11-26T14:58:23.689Z,80.60
2018-11-26T15:00:53.666Z,80.40
2018-11-26T15:03:23.377Z,80.68
2018-11-26T15:05:53.393Z,80.77
2018-11-26T15:08:23.101Z,80.66
2018-11-26T15:10:52.916Z,80.96
2018-11-26T15:13:22.837Z,80.91
2018-11-26T15:15:52.742Z,81.39
2018-11-26T15:18:22.557Z,81.10
2018-11-26T15:20:52.550Z,80.90
2018-11-26T15:23:22.237Z,81.04
2018-11-26T15:25:51.926Z,80.98
2018-11-26T15:28:21.685Z,81.01
2018-11-26T15:30:51.294Z,80.91
2018-11-26T15:33:21.214Z,80.97
2018-11-26T15:35:51.020Z,81.20
2018-11-26T15:38:20.898Z,80.97
2018-11-26T15:40:50.630Z,80.56
2018-11-26T15:43:20.419Z,80.78
2018-11-26T15:45:50.264Z,80.97
2018-11-26T15:48:20.128Z,81.45
2018-11-26T15:50:49.931Z,81.32
2018-11-26T15:53:19.755Z,81.42
2018-11-26T15:55:49.468Z,81.79
2018-11-26T15:58:23.701Z,81.76
2018-11-26T16:00:48.923Z,81.98
2018-11-26T16:03:18.730Z,82.10
2018-11-26T16:05:48.543Z,82.17
2018-11-26T16:08:18.115Z,81.72
2018-11-26T16:10:47.978Z,81.61
2018-11-26T16:13:17.928Z,81.72
2018-11-26T16:15:47.684Z,81.16
2018-11-26T16:18:22.378Z,81.37
2018-11-26T16:20:52.441Z,82.37
2018-11-26T16:23:22.229Z,82.64
2018-11-26T16:25:51.880Z,82.93
2018-11-26T16:28:23.670Z,82.97
2018-11-26T16:30:53.705Z,82.90
2018-11-26T16:33:23.432Z,82.93
2018-11-26T16:35:53.236Z,83.02
2018-11-26T16:38:22.890Z,82.68
2018-11-26T16:40:52.705Z,82.31
2018-11-26T16:43:22.898Z,82.61
2018-11-26T16:45:52.513Z,82.36
2018-11-26T16:48:22.137Z,81.85
2018-11-26T16:50:51.790Z,81.71
2018-11-26T16:53:21.423Z,81.83
2018-11-26T16:55:51.097Z,81.96
2018-11-26T16:58:21.124Z,81.92
2018-11-26T17:00:50.731Z,82.17
2018-11-26T17:03:20.429Z,81.83
2018-11-26T17:05:50.120Z,82.25
2018-11-26T17:08:19.734Z,82.10
2018-11-26T17:10:49.470Z,82.03
2018-11-26T17:13:19.268Z,82.31
2018-11-26T17:15:48.976Z,81.81
2018-11-26T17:18:18.557Z,81.94
2018-11-26T17:20:48.175Z,81.58
2018-11-26T17:23:17.887Z,81.40
2018-11-26T17:25:47.577Z,81.33
2018-11-26T17:28:17.149Z,80.97
2018-11-26T17:30:46.816Z,81.00
2018-11-26T17:33:19.639Z,81.05
2018-11-26T17:35:50.063Z,81.13
2018-11-26T17:38:19.866Z,81.24
2018-11-26T17:40:52.715Z,81.43
2018-11-26T17:43:22.408Z,81.70
2018-11-26T17:45:53.892Z,81.64
2018-11-26T17:48:23.778Z,81.67
2018-11-26T17:50:53.450Z,81.73
2018-11-26T17:53:23.603Z,81.82
2018-11-26T17:55:57.412Z,81.93
2018-11-26T17:58:29.947Z,82.30
2018-11-26T18:01:10.952Z,82.05
2018-11-26T18:03:40.937Z,82.02
2018-11-26T18:06:10.660Z,81.53
2018-11-26T18:08:40.387Z,81.39
2018-11-26T18:11:10.601Z,81.43
2018-11-26T18:13:40.319Z,81.30
2018-11-26T18:16:10.134Z,81.23
2018-11-26T18:18:40.209Z,81.12
2018-11-26T18:21:09.874Z,80.77
2018-11-26T18:23:39.616Z,80.50
2018-11-26T18:26:09.767Z,80.63
2018-11-26T18:28:39.696Z,80.67
2018-11-26T18:31:09.604Z,80.92
2018-11-26T18:33:39.601Z,80.91
2018-11-26T18:36:09.500Z,80.73
2018-11-26T18:38:39.469Z,80.47
2018-11-26T18:41:09.396Z,80.67
2018-11-26T18:43:41.825Z,80.63
2018-11-26T18:46:12.668Z,80.60
2018-11-26T18:48:43.402Z,80.40
2018-11-26T18:51:14.257Z,80.08
2018-11-26T18:53:44.237Z,80.09
2018-11-26T18:56:15.219Z,80.29
2018-11-26T18:58:45.197Z,80.08
2018-11-26T19:01:19.304Z,80.24
2018-11-26T19:03:49.552Z,80.12
2018-11-26T19:06:23.020Z,80.45
2018-11-26T19:08:52.967Z,80.90
2018-11-26T19:11:23.628Z,80.78
2018-11-26T19:14:01.476Z,80.81
2018-11-26T19:16:35.740Z,80.93
2018-11-26T19:19:06.747Z,80.90
2018-11-26T19:21:36.438Z,81.00
2018-11-26T19:24:08.389Z,81.19
2018-11-26T19:26:41.265Z,80.97
2018-11-26T19:29:11.188Z,80.75
2018-11-26T19:31:40.982Z,80.69
2018-11-26T19:34:11.485Z,80.67
2018-11-26T19:36:41.433Z,80.66
2018-11-26T19:39:12.030Z,81.15
2018-11-26T19:41:44.896Z,81.08
2018-11-26T19:44:17.196Z,80.76
2018-11-26T19:49:24.409Z,80.81
2018-11-26T19:51:54.576Z,81.50
2018-11-26T19:54:25.102Z,81.65
2018-11-26T19:56:59.196Z,81.65
2018-11-26T19:59:30.031Z,81.41
2018-11-26T20:02:05.016Z,81.22
2018-11-26T20:04:55.178Z,81.02
2018-11-26T20:07:27.251Z,81.13
2018-11-26T20:10:01.103Z,81.43
2018-11-26T20:12:30.854Z,81.30
2018-11-26T20:15:01.276Z,80.70
2018-11-26T20:17:36.137Z,80.18
2018-11-26T20:20:06.677Z,80.70
2018-11-26T20:22:36.453Z,80.82
2018-11-26T20:25:14.724Z,80.62
2018-11-26T20:27:44.923Z,80.43
2018-11-26T20:30:15.942Z,80.30
2018-11-26T20:32:53.682Z,80.62
2018-11-26T20:35:27.466Z,80.71
2018-11-26T20:37:57.220Z,81.18
2018-11-26T20:40:29.049Z,80.95
2018-11-26T20:42:58.834Z,80.95
2018-11-26T20:45:31.611Z,80.77
2018-11-26T20:48:04.949Z,80.63
2018-11-26T20:50:42.038Z,80.25
2018-11-26T20:53:12.306Z,79.35
2018-11-26T20:55:42.107Z,79.67
2018-11-26T20:58:12.826Z,79.45
2018-11-26T21:00:45.533Z,79.59
2018-11-26T21:03:15.242Z,79.67
2018-11-26T21:05:44.925Z,79.71
2018-11-26T21:08:15.839Z,79.46
2018-11-26T21:10:45.569Z,79.70
2018-11-26T21:13:16.998Z,80.03
2018-11-26T21:15:44.944Z,80.33
2018-11-26T21:18:14.930Z,80.00
2018-11-26T21:20:50.260Z,79.85
2018-11-26T21:23:29.060Z,80.06
2018-11-26T21:26:00.918Z,80.13
2018-11-26T21:28:30.597Z,80.02
2018-11-26T21:31:00.218Z,79.29
2018-11-26T21:33:29.912Z,78.04
2018-11-26T21:35:59.590Z,76.65
2018-11-26T21:38:29.219Z,76.55
2018-11-26T21:40:58.839Z,76.64
2018-11-26T21:43:28.482Z,76.34
2018-11-26T21:46:01.302Z,76.64
2018-11-26T21:48:30.932Z,76.79
2018-11-26T21:51:00.677Z,75.77
2018-11-26T21:53:30.396Z,75.29
2018-11-26T21:56:00.009Z,75.38
2018-11-26T21:58:29.706Z,76.13
2018-11-26T22:01:01.117Z,75.30
2018-11-26T22:03:30.758Z,76.05
2018-11-26T22:06:00.564Z,75.08
2018-11-26T22:08:30.283Z,75.90
2018-11-26T22:11:01.055Z,75.59
2018-11-26T22:13:29.703Z,75.17
2018-11-26T22:15:59.320Z,75.47
2018-11-26T22:18:29.001Z,75.64
2018-11-26T22:20:58.649Z,75.31
2018-11-26T22:23:28.317Z,75.80
2018-11-26T22:25:58.032Z,75.37
2018-11-26T22:28:27.667Z,75.35
2018-11-26T22:30:57.445Z,74.57
2018-11-26T22:33:27.150Z,74.60
2018-11-26T22:35:56.758Z,74.60
2018-11-26T22:38:26.360Z,74.83
2018-11-26T22:40:56.007Z,75.66
2018-11-26T22:43:25.640Z,75.56
2018-11-26T22:45:55.209Z,75.20
2018-11-26T22:48:24.829Z,74.38
2018-11-26T22:50:54.488Z,74.51
2018-11-26T22:53:24.206Z,74.28
2018-11-26T22:55:53.819Z,74.51
2018-11-26T22:58:23.520Z,74.37
2018-11-26T23:00:54.909Z,74.72
2018-11-26T23:03:26.518Z,74.48
2018-11-26T23:05:56.332Z,74.33
2018-11-26T23:08:25.926Z,74.52
2018-11-26T23:10:55.519Z,74.83
2018-11-26T23:13:25.253Z,75.05
2018-11-26T23:15:54.956Z,74.52
2018-11-26T23:18:24.666Z,74.94
2018-11-26T23:20:54.356Z,74.58
2018-11-26T23:23:23.969Z,73.64
2018-11-26T23:25:53.686Z,73.69
2018-11-26T23:28:23.416Z,74.16
2018-11-26T23:30:53.026Z,73.25
2018-11-26T23:33:22.666Z,73.19
2018-11-26T23:35:52.298Z,73.68
2018-11-26T23:38:21.929Z,74.12
2018-11-26T23:40:51.519Z,74.66
2018-11-26T23:43:21.532Z,74.34
2018-11-26T23:45:51.239Z,74.22
2018-11-26T23:48:20.855Z,74.39
2018-11-26T23:50:50.563Z,74.05
2018-11-26T23:53:20.263Z,73.27
2018-11-26T23:55:49.909Z,73.75
2018-11-26T23:58:19.884Z,73.94
